createdAt,value
2022-11-05T00:00:38.393Z,58.50
2022-11-05T00:03:24.243Z,56.40
2022-11-05T00:06:11.159Z,59.50
2022-11-05T00:09:08.227Z,56.30
2022-11-05T00:11:54.093Z,56.70
2022-11-05T00:14:40.189Z,57.70
2022-11-05T00:17:07.449Z,55.30
2022-11-05T00:19:34.596Z,57.30
2022-11-05T00:22:20.370Z,54.00
2022-11-05T00:25:06.167Z,55.60
2022-11-05T00:27:34.432Z,50.00
2022-11-05T00:30:04.963Z,52.00
2022-11-05T00:32:33.053Z,51.90
2022-11-05T00:35:00.181Z,52.70
2022-11-05T00:37:28.160Z,51.30
2022-11-05T00:39:55.198Z,49.90
2022-11-05T00:42:41.087Z,50.40
2022-11-05T00:45:08.953Z,53.90
2022-11-05T00:47:54.842Z,51.00
2022-11-05T00:50:22.312Z,53.00
2022-11-05T00:52:56.240Z,50.30
2022-11-05T00:55:29.942Z,50.00
2022-11-05T00:57:57.470Z,51.00
2022-11-05T01:00:25.349Z,49.60
2022-11-05T01:02:52.542Z,49.00
2022-11-05T01:05:20.048Z,48.30
2022-11-05T01:07:47.193Z,46.90
2022-11-05T01:10:14.143Z,48.30
2022-11-05T01:12:41.187Z,47.30
2022-11-05T01:15:09.404Z,46.40
2022-11-05T01:17:36.405Z,47.50
2022-11-05T01:20:03.860Z,46.90
2022-11-05T01:22:30.732Z,48.00
2022-11-05T01:24:57.753Z,44.10
2022-11-05T01:27:24.928Z,44.00
2022-11-05T01:29:51.830Z,45.70
2022-11-05T01:32:18.829Z,44.80
2022-11-05T01:34:45.733Z,44.10
2022-11-05T01:37:13.930Z,43.30
2022-11-05T01:39:40.954Z,44.00
2022-11-05T01:42:15.970Z,44.40
2022-11-05T01:45:03.412Z,44.80
2022-11-05T01:47:59.952Z,43.20
2022-11-05T01:50:49.467Z,43.50
2022-11-05T01:53:51.183Z,44.10
2022-11-05T01:56:23.870Z,42.70
2022-11-05T01:58:53.990Z,42.90
2022-11-05T02:01:21.235Z,42.50
2022-11-05T02:03:49.103Z,44.80
2022-11-05T02:06:16.770Z,42.10
2022-11-05T02:08:55.492Z,42.40
2022-11-05T02:11:22.531Z,40.70
2022-11-05T02:13:49.679Z,42.90
2022-11-05T02:16:39.562Z,41.10
2022-11-05T02:19:41.153Z,42.30
2022-11-05T02:22:33.180Z,41.70
2022-11-05T02:25:15.557Z,42.40
2022-11-05T02:28:15.478Z,42.90
2022-11-05T02:31:15.230Z,42.70
2022-11-05T02:33:44.287Z,44.20
2022-11-05T02:36:35.807Z,46.20
2022-11-05T02:39:27.332Z,43.90
2022-11-05T02:42:19.338Z,44.60
2022-11-05T02:44:54.126Z,44.70
2022-11-05T02:47:39.462Z,43.10
2022-11-05T02:50:12.651Z,42.30
2022-11-05T02:55:40.882Z,40.30
2022-11-05T02:58:08.095Z,42.10
2022-11-05T03:00:51.257Z,42.50
2022-11-05T03:05:59.980Z,41.70
2022-11-05T03:08:58.243Z,43.50
2022-11-05T03:11:27.070Z,41.70
2022-11-05T03:13:56.744Z,42.30
2022-11-05T03:16:37.404Z,41.50
2022-11-05T03:19:13.646Z,41.10
2022-11-05T03:22:02.017Z,41.90
2022-11-05T03:24:34.793Z,41.50
2022-11-05T03:27:07.507Z,41.90
2022-11-05T03:29:39.807Z,42.00
2022-11-05T03:32:06.808Z,40.00
2022-11-05T03:34:37.120Z,40.70
2022-11-05T03:37:04.259Z,43.70
2022-11-05T03:39:37.553Z,39.30
2022-11-05T03:47:40.583Z,42.90
2022-11-05T03:50:40.931Z,44.00
2022-11-05T03:53:14.153Z,40.30
2022-11-05T03:55:59.355Z,41.10
2022-11-05T03:58:26.474Z,39.40
2022-11-05T04:00:53.447Z,41.60
2022-11-05T04:03:20.464Z,38.70
2022-11-05T04:06:07.582Z,40.60
2022-11-05T04:08:53.373Z,38.90
2022-11-05T04:11:39.183Z,38.50
2022-11-05T04:14:06.202Z,40.80
2022-11-05T04:16:51.885Z,42.50
2022-11-05T04:19:38.812Z,40.50
2022-11-05T04:22:24.595Z,40.70
2022-11-05T04:24:51.644Z,40.70
2022-11-05T04:27:18.786Z,41.00
2022-11-05T04:30:04.774Z,42.20
2022-11-05T04:32:31.732Z,41.00
2022-11-05T04:34:58.775Z,39.80
2022-11-05T04:37:25.919Z,40.00
2022-11-05T04:39:53.275Z,41.60
2022-11-05T04:42:20.320Z,40.40
2022-11-05T04:44:47.367Z,41.70
2022-11-05T04:47:14.310Z,40.70
2022-11-05T04:49:41.257Z,40.90
2022-11-05T04:52:08.300Z,40.80
2022-11-05T04:54:35.585Z,40.90
2022-11-05T04:57:02.496Z,43.20
2022-11-05T04:59:29.568Z,40.90
2022-11-05T05:01:56.735Z,41.80
2022-11-05T05:04:23.944Z,41.50
2022-11-05T05:06:50.912Z,40.00
2022-11-05T05:09:18.179Z,42.40
2022-11-05T05:11:45.611Z,39.60
2022-11-05T05:14:12.888Z,40.70
2022-11-05T05:16:40.507Z,41.80
2022-11-05T05:19:07.591Z,39.90
2022-11-05T05:21:41.266Z,40.80
2022-11-05T05:24:16.202Z,42.80
2022-11-05T05:26:45.194Z,45.40
2022-11-05T05:30:14.797Z,45.30
2022-11-05T05:32:41.888Z,45.90
2022-11-05T05:35:09.815Z,48.30
2022-11-05T05:37:36.964Z,48.50
2022-11-05T05:40:04.216Z,49.50
2022-11-05T05:42:31.262Z,46.20
2022-11-05T05:44:58.245Z,44.40
2022-11-05T05:47:25.372Z,45.00
2022-11-05T05:49:52.513Z,43.10
2022-11-05T05:52:19.447Z,43.90
2022-11-05T05:54:46.395Z,44.90
2022-11-05T05:57:13.437Z,47.90
2022-11-05T05:59:40.382Z,45.10
2022-11-05T06:02:07.434Z,46.90
2022-11-05T06:04:34.913Z,46.90
2022-11-05T06:07:01.910Z,47.10
2022-11-05T06:09:29.202Z,45.90
2022-11-05T06:11:56.230Z,46.70
2022-11-05T06:14:23.542Z,43.30
2022-11-05T06:16:53.295Z,42.60
2022-11-05T06:19:22.722Z,44.20
2022-11-05T06:21:49.850Z,46.60
2022-11-05T06:24:17.024Z,51.60
2022-11-05T06:26:45.316Z,53.90
2022-11-05T06:29:12.318Z,51.70
2022-11-05T06:31:39.473Z,54.40
2022-11-05T06:34:06.512Z,54.80
2022-11-05T06:36:33.868Z,56.70
2022-11-05T06:39:00.957Z,42.50
2022-11-05T06:41:28.069Z,37.20
2022-11-05T06:43:55.116Z,37.50
2022-11-05T06:46:24.625Z,35.50
2022-11-05T06:48:51.778Z,35.70
2022-11-05T06:51:19.220Z,35.60
2022-11-05T06:53:46.171Z,34.50
2022-11-05T06:56:13.216Z,33.60
2022-11-05T06:58:40.161Z,31.40
2022-11-05T07:01:08.857Z,29.70
2022-11-05T07:03:37.059Z,30.20
2022-11-05T07:06:04.608Z,26.90
2022-11-05T07:08:35.408Z,29.20
2022-11-05T07:11:02.455Z,26.80
2022-11-05T07:13:29.396Z,27.40
2022-11-05T07:15:57.000Z,30.60
2022-11-05T07:18:24.211Z,31.20
2022-11-05T07:20:51.160Z,32.30
2022-11-05T07:23:18.205Z,33.00
2022-11-05T07:25:45.355Z,31.20
2022-11-05T07:28:12.365Z,31.30
2022-11-05T07:30:39.321Z,30.20
2022-11-05T07:33:06.225Z,31.10
2022-11-05T07:35:33.245Z,31.00
2022-11-05T07:38:00.093Z,30.60
2022-11-05T07:40:27.990Z,27.50
2022-11-05T07:42:56.557Z,29.10
2022-11-05T07:45:23.705Z,30.10
2022-11-05T07:47:52.229Z,29.30
2022-11-05T07:50:20.693Z,28.80
2022-11-05T07:52:48.753Z,29.60
2022-11-05T07:55:16.060Z,28.10
2022-11-05T07:57:46.619Z,26.60
2022-11-05T08:00:15.387Z,28.70
2022-11-05T08:02:42.834Z,27.90
2022-11-05T08:05:10.072Z,30.10
2022-11-05T08:07:36.970Z,29.60
2022-11-05T08:10:04.423Z,31.30
2022-11-05T08:12:32.060Z,28.90
2022-11-05T08:14:59.033Z,28.20
2022-11-05T08:17:25.939Z,29.10
2022-11-05T08:19:52.866Z,29.80
2022-11-05T08:22:20.029Z,28.20
2022-11-05T08:24:46.971Z,31.20
2022-11-05T08:27:13.964Z,29.50
2022-11-05T08:29:40.971Z,30.40
2022-11-05T08:32:07.874Z,30.60
2022-11-05T08:34:34.687Z,30.30
2022-11-05T08:37:02.112Z,32.10
2022-11-05T08:39:29.145Z,30.60
2022-11-05T08:41:56.068Z,33.50
2022-11-05T08:44:23.027Z,30.10
2022-11-05T08:46:50.116Z,30.60
2022-11-05T08:49:17.002Z,28.50
2022-11-05T08:51:44.716Z,30.10
2022-11-05T08:54:11.690Z,32.00
2022-11-05T08:56:38.699Z,32.20
2022-11-05T08:59:05.627Z,35.80
2022-11-05T09:01:33.579Z,32.30
2022-11-05T09:04:00.496Z,31.80
2022-11-05T09:06:27.354Z,32.40
2022-11-05T09:08:54.280Z,32.10
2022-11-05T09:11:21.275Z,35.20
2022-11-05T09:13:48.134Z,33.10
2022-11-05T09:16:25.475Z,33.30
2022-11-05T09:18:52.591Z,33.20
2022-11-05T09:21:19.605Z,31.40
2022-11-05T09:23:46.858Z,29.50
2022-11-05T09:26:13.831Z,30.10
2022-11-05T09:28:40.866Z,30.20
2022-11-05T09:31:08.639Z,33.50
2022-11-05T09:33:37.050Z,32.10
2022-11-05T09:36:04.569Z,30.10
2022-11-05T09:38:32.371Z,30.80
2022-11-05T09:41:02.391Z,31.90
2022-11-05T09:43:38.548Z,31.10
2022-11-05T09:46:23.460Z,35.20
2022-11-05T09:48:53.887Z,31.80
2022-11-05T09:51:23.876Z,32.60
2022-11-05T09:53:51.612Z,32.10
2022-11-05T09:56:24.250Z,32.00
2022-11-05T09:58:54.656Z,32.90
2022-11-05T10:01:24.478Z,31.10
2022-11-05T10:03:54.073Z,31.00
2022-11-05T10:06:23.073Z,31.60
2022-11-05T10:08:57.660Z,31.10
2022-11-05T10:11:45.983Z,30.90
2022-11-05T10:14:18.882Z,32.50
2022-11-05T10:19:16.620Z,32.60
2022-11-05T10:26:00.869Z,33.90
2022-11-05T10:31:53.930Z,31.50
2022-11-05T10:34:22.042Z,25.50
2022-11-05T10:36:49.047Z,22.70
2022-11-05T10:39:17.840Z,19.20
2022-11-05T10:41:57.577Z,17.80
2022-11-05T10:44:30.563Z,18.70
2022-11-05T10:49:39.739Z,17.40
2022-11-05T10:52:24.988Z,17.50
2022-11-05T10:54:53.895Z,17.70
2022-11-05T10:57:47.407Z,17.50
2022-11-05T11:00:17.095Z,16.20
2022-11-05T11:02:51.071Z,17.50
2022-11-05T11:05:24.043Z,16.00
2022-11-05T11:08:01.703Z,16.50
2022-11-05T11:10:29.120Z,17.70
2022-11-05T11:12:56.514Z,18.50
2022-11-05T11:15:28.722Z,17.50
2022-11-05T11:17:56.350Z,17.20
2022-11-05T11:20:26.291Z,18.80
2022-11-05T11:22:59.370Z,19.00
2022-11-05T11:25:28.280Z,20.50
2022-11-05T11:27:55.169Z,18.90
2022-11-05T11:30:22.143Z,19.20
2022-11-05T11:32:49.108Z,19.30
2022-11-05T11:35:23.684Z,18.80
2022-11-05T11:37:52.829Z,18.40
2022-11-05T11:40:33.610Z,18.00
2022-11-05T11:43:02.850Z,17.10
2022-11-05T11:45:47.047Z,18.20
2022-11-05T11:48:19.407Z,19.20
2022-11-05T11:50:47.443Z,19.50
2022-11-05T11:53:21.558Z,19.90
2022-11-05T11:56:05.242Z,19.70
2022-11-05T11:58:39.518Z,20.10
2022-11-05T12:01:11.761Z,19.90
2022-11-05T12:03:47.716Z,18.40
2022-11-05T12:06:29.188Z,17.00
2022-11-05T12:09:01.992Z,15.80
2022-11-05T12:11:39.970Z,17.60
2022-11-05T12:14:13.179Z,18.00
2022-11-05T12:16:48.044Z,16.20
2022-11-05T12:19:39.692Z,17.00
2022-11-05T12:22:18.988Z,17.80
2022-11-05T12:24:55.659Z,16.90
2022-11-05T12:27:30.138Z,18.10
2022-11-05T12:30:01.948Z,17.10
2022-11-05T12:32:44.365Z,17.40
2022-11-05T12:35:36.321Z,16.10
2022-11-05T12:38:12.841Z,17.30
2022-11-05T12:40:48.943Z,18.80
2022-11-05T12:43:40.836Z,19.00
2022-11-05T12:46:14.007Z,18.50
2022-11-05T12:51:20.764Z,32.50
2022-11-05T12:53:56.407Z,23.30
2022-11-05T12:56:34.692Z,22.10
2022-11-05T12:59:22.428Z,20.30
2022-11-05T13:01:58.134Z,22.90
2022-11-05T13:04:42.045Z,32.70
2022-11-05T13:07:10.508Z,22.30
2022-11-05T13:09:44.970Z,26.40
2022-11-05T13:12:16.156Z,22.50
2022-11-05T13:14:54.643Z,25.70
2022-11-05T13:17:26.340Z,19.50
2022-11-05T13:20:16.039Z,21.30
2022-11-05T13:22:49.823Z,22.30
2022-11-05T13:25:22.055Z,32.10
2022-11-05T13:27:52.058Z,27.20
2022-11-05T13:30:26.689Z,40.40
2022-11-05T13:33:00.433Z,23.90
2022-11-05T13:35:37.830Z,24.70
2022-11-05T13:38:26.675Z,22.20
2022-11-05T13:41:03.986Z,22.00
2022-11-05T13:44:20.103Z,25.10
2022-11-05T13:47:21.161Z,84.40
2022-11-05T13:50:26.652Z,46.90
2022-11-05T13:53:15.194Z,28.20
2022-11-05T13:56:09.673Z,25.10
2022-11-05T13:58:48.676Z,23.40
2022-11-05T14:01:16.037Z,23.80
2022-11-05T14:03:51.046Z,25.80
2022-11-05T14:06:30.073Z,26.70
2022-11-05T14:09:01.278Z,26.10
2022-11-05T14:11:41.986Z,28.60
2022-11-05T14:14:21.388Z,27.60
2022-11-05T14:17:12.897Z,26.40
2022-11-05T14:20:15.682Z,178.30
2022-11-05T14:22:42.834Z,29.70
2022-11-05T14:25:36.244Z,29.80
2022-11-05T14:28:03.395Z,30.10
2022-11-05T14:30:45.972Z,34.30
2022-11-05T14:33:26.621Z,32.10
2022-11-05T14:36:13.311Z,29.60
2022-11-05T14:38:47.043Z,29.10
2022-11-05T14:41:14.026Z,28.70
2022-11-05T14:43:45.494Z,29.00
2022-11-05T14:46:12.629Z,31.40
2022-11-05T14:48:44.595Z,29.30
2022-11-05T14:51:30.526Z,31.10
2022-11-05T14:54:24.317Z,30.30
2022-11-05T14:56:59.332Z,30.50
2022-11-05T14:59:31.699Z,31.20
2022-11-05T15:02:05.365Z,30.80
2022-11-05T15:04:36.654Z,28.90
2022-11-05T15:07:08.525Z,30.40
2022-11-05T15:09:57.315Z,29.20
2022-11-05T15:12:24.969Z,30.60
2022-11-05T15:15:28.163Z,32.40
2022-11-05T15:18:31.614Z,43.20
2022-11-05T15:20:59.490Z,44.70
2022-11-05T15:23:29.517Z,37.30
2022-11-05T15:26:11.812Z,41.60
2022-11-05T15:28:42.704Z,45.40
2022-11-05T15:31:15.217Z,36.40
2022-11-05T15:33:43.328Z,35.40
2022-11-05T15:36:10.949Z,36.60
2022-11-05T15:38:56.662Z,37.50
2022-11-05T15:41:34.710Z,35.10
2022-11-05T15:44:02.880Z,38.00
2022-11-05T15:46:30.007Z,31.60
2022-11-05T15:49:04.420Z,32.10
2022-11-05T15:51:31.367Z,34.10
2022-11-05T15:56:58.071Z,37.10
2022-11-05T15:59:26.139Z,43.90
2022-11-05T16:02:04.023Z,53.10
2022-11-05T16:04:32.622Z,63.10
2022-11-05T16:07:01.909Z,70.20
2022-11-05T16:09:31.305Z,67.00
2022-11-05T16:12:19.982Z,68.60
2022-11-05T16:15:08.315Z,82.40
2022-11-05T16:17:54.693Z,86.00
2022-11-05T16:20:21.900Z,81.50
2022-11-05T16:22:53.806Z,71.40
2022-11-05T16:25:27.559Z,71.00
2022-11-05T16:27:55.795Z,74.70
2022-11-05T16:30:25.341Z,78.00
2022-11-05T16:32:54.652Z,78.80
2022-11-05T16:35:23.592Z,75.50
2022-11-05T16:37:55.207Z,77.70
2022-11-05T16:40:25.174Z,78.10
2022-11-05T16:42:55.446Z,78.40
2022-11-05T16:45:26.321Z,75.10
2022-11-05T16:47:53.671Z,75.80
2022-11-05T16:50:24.053Z,76.60
2022-11-05T16:52:54.427Z,75.30
2022-11-05T16:55:21.410Z,75.80
2022-11-05T16:57:53.679Z,70.20
2022-11-05T17:00:21.086Z,83.20
2022-11-05T17:02:48.380Z,75.20
2022-11-05T17:05:29.217Z,82.30
2022-11-05T17:07:56.578Z,78.50
2022-11-05T17:10:24.769Z,79.90
2022-11-05T17:12:51.690Z,79.90
2022-11-05T17:15:23.649Z,78.20
2022-11-05T17:17:51.178Z,82.40
2022-11-05T17:20:42.074Z,80.10
2022-11-05T17:23:12.597Z,94.90
2022-11-05T17:25:40.452Z,92.10
2022-11-05T17:28:07.610Z,90.30
2022-11-05T17:30:40.280Z,95.90
2022-11-05T17:33:15.187Z,88.30
2022-11-05T17:35:42.575Z,96.50
2022-11-05T17:38:10.171Z,91.20
2022-11-05T17:40:37.337Z,92.10
2022-11-05T17:43:04.370Z,88.10
2022-11-05T17:48:05.531Z,88.90
2022-11-05T17:50:32.893Z,88.40
2022-11-05T17:52:59.932Z,92.30
2022-11-05T17:55:27.085Z,91.30
2022-11-05T17:57:54.439Z,94.00
2022-11-05T18:07:52.060Z,91.50
2022-11-05T18:10:19.517Z,91.80
2022-11-05T18:12:47.574Z,93.40
2022-11-05T18:15:15.233Z,95.10
2022-11-05T18:17:42.282Z,95.80
2022-11-05T18:20:17.363Z,90.10
2022-11-05T18:22:46.410Z,90.80
2022-11-05T18:25:14.289Z,96.90
2022-11-05T18:27:44.822Z,100.60
2022-11-05T18:30:16.976Z,98.60
2022-11-05T18:32:44.943Z,110.90
2022-11-05T18:35:13.529Z,114.40
2022-11-05T18:37:40.675Z,106.10
2022-11-05T18:40:08.336Z,107.90
2022-11-05T18:42:35.382Z,110.30
2022-11-05T18:45:02.337Z,119.10
2022-11-05T18:47:34.240Z,120.50
2022-11-05T18:50:06.454Z,127.60
2022-11-05T18:52:34.020Z,130.30
2022-11-05T18:55:01.168Z,128.30
2022-11-05T18:57:31.285Z,122.50
2022-11-05T19:00:00.797Z,124.00
2022-11-05T19:02:30.900Z,117.70
2022-11-05T19:05:27.578Z,121.60
2022-11-05T19:07:45.189Z,117.80
2022-11-05T19:10:15.601Z,114.50
2022-11-05T19:12:43.208Z,109.00
2022-11-05T19:15:13.753Z,107.60
2022-11-05T19:17:40.941Z,104.70
2022-11-05T19:20:09.729Z,96.20
2022-11-05T19:22:36.880Z,99.10
2022-11-05T19:25:05.035Z,102.40
2022-11-05T19:27:34.350Z,96.00
2022-11-05T19:30:01.395Z,100.40
2022-11-05T19:32:28.418Z,98.50
2022-11-05T19:34:55.464Z,100.30
2022-11-05T19:37:22.893Z,101.70
2022-11-05T19:39:52.892Z,99.40
2022-11-05T19:42:25.268Z,94.70
2022-11-05T19:45:44.606Z,87.90
2022-11-05T19:48:19.368Z,87.10
2022-11-05T19:50:46.957Z,92.70
2022-11-05T19:53:14.001Z,93.70
2022-11-05T19:55:41.453Z,93.60
2022-11-05T19:58:09.170Z,101.30
2022-11-05T20:00:39.543Z,101.50
2022-11-05T20:03:06.580Z,103.70
2022-11-05T20:05:36.232Z,115.70
2022-11-05T20:26:22.406Z,94.50
2022-11-05T20:28:49.488Z,88.80
2022-11-05T20:31:17.331Z,90.60
2022-11-05T20:33:45.416Z,91.90
2022-11-05T20:36:19.418Z,87.90
2022-11-05T20:38:48.271Z,92.40
2022-11-05T20:41:15.646Z,91.00
2022-11-05T20:43:43.029Z,95.10
2022-11-05T20:46:14.112Z,96.10
2022-11-05T20:48:45.081Z,96.50
2022-11-05T20:51:14.193Z,100.60
2022-11-05T20:53:43.337Z,91.90
2022-11-05T20:56:22.223Z,89.60
2022-11-05T20:58:50.477Z,89.20
2022-11-05T21:01:17.822Z,94.50
2022-11-05T21:03:47.340Z,94.00
2022-11-05T21:06:14.925Z,100.10
2022-11-05T21:08:57.004Z,105.40
2022-11-05T21:11:49.535Z,99.80
2022-11-05T21:14:19.755Z,100.60
2022-11-05T21:16:46.803Z,101.70
2022-11-05T21:19:15.386Z,103.40
2022-11-05T21:21:42.468Z,109.10
2022-11-05T21:24:09.592Z,156.20
2022-11-05T21:26:37.038Z,116.70
2022-11-05T21:29:04.187Z,91.80
2022-11-05T21:31:37.479Z,86.20
2022-11-05T21:34:04.732Z,88.30
2022-11-05T21:36:33.120Z,84.30
2022-11-05T21:39:00.360Z,82.90
2022-11-05T21:41:30.392Z,82.30
2022-11-05T21:43:57.670Z,77.60
2022-11-05T21:46:24.587Z,77.90
2022-11-05T21:48:51.949Z,73.50
2022-11-05T21:51:39.562Z,72.70
2022-11-05T21:54:25.307Z,70.20
2022-11-05T21:57:11.474Z,73.30
2022-11-05T21:59:48.263Z,75.10
2022-11-05T22:02:23.151Z,82.60
2022-11-05T22:04:52.400Z,79.30
2022-11-05T22:07:23.953Z,77.50
2022-11-05T22:09:50.948Z,78.40
2022-11-05T22:12:19.634Z,82.70
2022-11-05T22:14:46.710Z,91.80
2022-11-05T22:17:15.063Z,91.90
2022-11-05T22:19:41.970Z,92.30
2022-11-05T22:22:09.660Z,93.60
2022-11-05T22:24:39.106Z,96.80
2022-11-05T22:27:10.688Z,99.40
2022-11-05T22:29:37.669Z,97.60
2022-11-05T22:32:04.977Z,94.70
2022-11-05T22:34:31.868Z,94.00
2022-11-05T22:36:59.338Z,95.90
2022-11-05T22:39:26.329Z,96.60
2022-11-05T22:41:55.407Z,94.10
2022-11-05T22:44:23.526Z,95.70
2022-11-05T22:46:50.496Z,87.80
2022-11-05T22:49:17.519Z,82.20
2022-11-05T22:51:49.274Z,79.90
2022-11-05T22:54:17.078Z,74.90
2022-11-05T22:56:44.701Z,74.30
2022-11-05T22:59:13.706Z,74.00
2022-11-05T23:01:41.441Z,62.60
2022-11-05T23:04:08.941Z,58.20
2022-11-05T23:06:55.951Z,58.70
2022-11-05T23:09:50.113Z,58.40
2022-11-05T23:12:27.812Z,56.40
2022-11-05T23:14:58.046Z,54.60
2022-11-05T23:17:47.218Z,51.70
2022-11-05T23:20:36.156Z,53.10
2022-11-05T23:23:27.782Z,52.80
2022-11-05T23:25:58.718Z,51.60
2022-11-05T23:28:25.765Z,52.70
2022-11-05T23:31:26.091Z,52.20
2022-11-05T23:39:59.632Z,52.20
2022-11-05T23:42:45.726Z,50.20
2022-11-05T23:45:41.955Z,45.30
2022-11-05T23:48:17.241Z,41.10
2022-11-05T23:50:56.138Z,34.00
2022-11-05T23:53:23.475Z,36.20
2022-11-05T23:55:50.637Z,38.00
2022-11-05T23:58:17.978Z,36.30
